createdAt,value
2023-03-17T00:00:34.039Z,479.00
2023-03-17T00:01:34.072Z,481.00
2023-03-17T00:02:34.057Z,483.00
2023-03-17T00:03:34.092Z,481.00
2023-03-17T00:04:34.088Z,481.00
2023-03-17T00:05:34.143Z,480.00
2023-03-17T00:06:34.139Z,477.00
2023-03-17T00:07:34.213Z,477.00
2023-03-17T00:08:34.205Z,475.00
2023-03-17T00:09:34.238Z,474.00
2023-03-17T00:10:34.264Z,470.00
2023-03-17T00:11:34.276Z,470.00
2023-03-17T00:12:34.320Z,472.00
2023-03-17T00:13:34.342Z,473.00
2023-03-17T00:14:34.378Z,476.00
2023-03-17T00:15:34.463Z,476.00
2023-03-17T00:16:34.430Z,479.00
2023-03-17T00:17:34.457Z,477.00
2023-03-17T00:18:34.493Z,476.00
2023-03-17T00:19:34.532Z,474.00
2023-03-17T00:20:34.532Z,474.00
2023-03-17T00:21:34.590Z,476.00
2023-03-17T00:22:34.633Z,473.00
2023-03-17T00:23:34.618Z,469.00
2023-03-17T00:24:34.669Z,468.00
2023-03-17T00:25:34.672Z,473.00
2023-03-17T00:26:34.702Z,478.00
2023-03-17T00:27:34.733Z,476.00
2023-03-17T00:28:34.787Z,474.00
2023-03-17T00:29:34.791Z,472.00
2023-03-17T00:30:34.810Z,474.00
2023-03-17T00:31:34.894Z,473.00
2023-03-17T00:32:34.897Z,474.00
2023-03-17T00:33:34.933Z,474.00
2023-03-17T00:34:34.916Z,472.00
2023-03-17T00:35:34.951Z,472.00
2023-03-17T00:36:34.973Z,470.00
2023-03-17T00:37:34.963Z,467.00
2023-03-17T00:38:35.004Z,467.00
2023-03-17T00:39:35.022Z,467.00
2023-03-17T00:40:35.047Z,470.00
2023-03-17T00:41:35.099Z,471.00
2023-03-17T00:42:35.087Z,471.00
2023-03-17T00:43:35.138Z,472.00
2023-03-17T00:49:35.284Z,471.00
2023-03-17T00:50:35.293Z,476.00
2023-03-17T00:51:35.368Z,479.00
2023-03-17T00:52:35.398Z,475.00
2023-03-17T00:53:35.404Z,474.00
2023-03-17T00:54:35.442Z,474.00
2023-03-17T00:55:35.427Z,475.00
2023-03-17T00:56:35.472Z,477.00
2023-03-17T00:57:35.502Z,477.00
2023-03-17T00:58:35.544Z,480.00
2023-03-17T00:59:35.599Z,478.00
2023-03-17T01:00:35.599Z,480.00
2023-03-17T01:01:35.634Z,481.00
2023-03-17T01:02:35.634Z,482.00
2023-03-17T01:03:35.717Z,483.00
2023-03-17T01:04:35.738Z,483.00
2023-03-17T01:05:35.773Z,482.00
2023-03-17T01:06:35.794Z,480.00
2023-03-17T01:07:35.852Z,479.00
2023-03-17T01:08:35.884Z,480.00
2023-03-17T01:09:35.901Z,478.00
2023-03-17T01:10:35.931Z,475.00
2023-03-17T01:11:35.950Z,478.00
2023-03-17T01:12:36.046Z,473.00
2023-03-17T01:13:36.037Z,474.00
2023-03-17T01:14:37.872Z,475.00
2023-03-17T01:15:36.096Z,476.00
2023-03-17T01:16:36.202Z,477.00
2023-03-17T01:17:36.154Z,476.00
2023-03-17T01:18:36.250Z,475.00
2023-03-17T01:19:36.231Z,474.00
2023-03-17T01:20:36.270Z,473.00
2023-03-17T01:21:36.820Z,472.00
2023-03-17T01:22:36.340Z,473.00
2023-03-17T01:23:36.314Z,469.00
2023-03-17T01:24:36.370Z,467.00
2023-03-17T01:25:36.417Z,466.00
2023-03-17T01:26:36.412Z,466.00
2023-03-17T01:27:36.534Z,467.00
2023-03-17T01:28:36.657Z,470.00
2023-03-17T01:29:36.859Z,473.00
2023-03-17T01:30:36.767Z,472.00
2023-03-17T01:31:36.659Z,473.00
2023-03-17T01:32:36.730Z,474.00
2023-03-17T01:33:36.691Z,472.00
2023-03-17T01:34:36.737Z,472.00
2023-03-17T01:35:36.794Z,472.00
2023-03-17T01:36:36.818Z,470.00
2023-03-17T01:37:36.803Z,473.00
2023-03-17T01:38:36.813Z,472.00
2023-03-17T01:39:36.868Z,473.00
2023-03-17T01:40:36.850Z,472.00
2023-03-17T01:41:36.902Z,471.00
2023-03-17T01:42:36.921Z,469.00
2023-03-17T01:43:36.932Z,467.00
2023-03-17T01:44:36.946Z,468.00
2023-03-17T01:45:37.053Z,470.00
2023-03-17T01:46:37.050Z,471.00
2023-03-17T01:47:37.095Z,468.00
2023-03-17T01:48:37.087Z,467.00
2023-03-17T01:49:37.172Z,469.00
2023-03-17T01:50:37.185Z,471.00
2023-03-17T01:51:37.230Z,471.00
2023-03-17T01:52:37.273Z,469.00
2023-03-17T01:53:37.342Z,470.00
2023-03-17T01:54:37.409Z,469.00
2023-03-17T01:55:37.427Z,470.00
2023-03-17T01:56:37.497Z,471.00
2023-03-17T02:07:38.005Z,477.00
2023-03-17T02:18:38.462Z,474.00
2023-03-17T02:19:38.500Z,473.00
2023-03-17T02:20:38.549Z,474.00
2023-03-17T02:21:38.578Z,474.00
2023-03-17T02:22:38.607Z,473.00
2023-03-17T02:23:38.618Z,476.00
2023-03-17T02:24:38.668Z,476.00
2023-03-17T02:25:38.701Z,476.00
2023-03-17T02:26:38.772Z,478.00
2023-03-17T02:27:38.873Z,475.00
2023-03-17T02:28:38.815Z,475.00
2023-03-17T02:29:38.855Z,474.00
2023-03-17T02:30:38.934Z,474.00
2023-03-17T02:31:38.885Z,478.00
2023-03-17T02:32:38.942Z,475.00
2023-03-17T02:33:38.951Z,476.00
2023-03-17T02:34:38.998Z,475.00
2023-03-17T02:35:39.038Z,479.00
2023-03-17T02:36:39.064Z,478.00
2023-03-17T02:37:39.073Z,477.00
2023-03-17T02:38:39.143Z,477.00
2023-03-17T02:39:39.122Z,477.00
2023-03-17T02:40:39.213Z,476.00
2023-03-17T02:41:39.199Z,476.00
2023-03-17T02:42:39.230Z,477.00
2023-03-17T02:43:39.276Z,478.00
2023-03-17T02:44:39.300Z,479.00
2023-03-17T02:45:39.333Z,480.00
2023-03-17T02:46:39.372Z,482.00
2023-03-17T02:47:39.445Z,482.00
2023-03-17T02:48:39.439Z,480.00
2023-03-17T02:49:39.462Z,481.00
2023-03-17T02:50:39.478Z,481.00
2023-03-17T02:51:39.529Z,482.00
2023-03-17T02:52:39.542Z,482.00
2023-03-17T02:53:39.582Z,481.00
2023-03-17T02:54:39.601Z,480.00
2023-03-17T02:55:39.652Z,479.00
2023-03-17T02:56:39.649Z,479.00
2023-03-17T02:57:39.697Z,476.00
2023-03-17T02:58:39.683Z,475.00
2023-03-17T02:59:39.734Z,473.00
2023-03-17T03:00:39.735Z,476.00
2023-03-17T03:01:39.859Z,475.00
2023-03-17T03:02:39.841Z,474.00
2023-03-17T03:03:39.830Z,474.00
2023-03-17T03:04:39.807Z,476.00
2023-03-17T03:05:39.888Z,477.00
2023-03-17T03:06:39.924Z,477.00
2023-03-17T03:07:39.902Z,475.00
2023-03-17T03:08:39.911Z,476.00
2023-03-17T03:09:39.944Z,474.00
2023-03-17T03:10:39.969Z,474.00
2023-03-17T03:11:39.981Z,474.00
2023-03-17T03:12:40.004Z,476.00
2023-03-17T03:13:40.047Z,480.00
2023-03-17T06:00:50.473Z,479.00
2023-03-17T06:45:50.525Z,577.00
2023-03-17T10:49:48.567Z,751.00
2023-03-17T10:54:48.564Z,801.00
2023-03-17T10:58:48.458Z,812.00
2023-03-17T10:59:48.472Z,810.00
2023-03-17T11:00:48.507Z,810.00
2023-03-17T11:01:48.520Z,811.00
2023-03-17T11:02:48.549Z,809.00
2023-03-17T11:03:48.640Z,813.00
2023-03-17T11:04:48.591Z,820.00
2023-03-17T11:05:48.622Z,824.00
2023-03-17T11:06:48.613Z,826.00
2023-03-17T11:07:48.986Z,832.00
2023-03-17T11:08:49.019Z,841.00
2023-03-17T11:09:48.721Z,853.00
2023-03-17T11:10:48.713Z,871.00
2023-03-17T11:11:48.807Z,879.00
2023-03-17T11:12:48.815Z,884.00
2023-03-17T11:13:49.596Z,903.00
2023-03-17T11:14:49.116Z,903.00
2023-03-17T11:15:48.966Z,908.00
2023-03-17T11:16:49.108Z,911.00
2023-03-17T11:17:48.980Z,904.00
2023-03-17T11:18:49.053Z,903.00
2023-03-17T11:19:49.088Z,899.00
2023-03-17T11:20:49.145Z,900.00
2023-03-17T11:21:49.171Z,903.00
2023-03-17T11:22:49.240Z,906.00
2023-03-17T11:23:49.222Z,914.00
2023-03-17T11:24:49.290Z,920.00
2023-03-17T11:25:49.283Z,914.00
2023-03-17T11:26:49.344Z,735.00
2023-03-17T11:27:49.356Z,713.00
2023-03-17T11:28:49.371Z,705.00
2023-03-17T11:29:49.406Z,687.00
2023-03-17T11:30:49.442Z,679.00
2023-03-17T11:31:49.500Z,659.00
2023-03-17T11:32:49.549Z,645.00
2023-03-17T11:33:49.439Z,573.00
2023-03-17T11:34:49.678Z,571.00
2023-03-17T11:35:49.522Z,580.00
2023-03-17T11:36:49.513Z,578.00
2023-03-17T11:37:49.570Z,573.00
2023-03-17T11:38:49.586Z,588.00
2023-03-17T11:39:50.109Z,594.00
2023-03-17T11:40:49.642Z,594.00
2023-03-17T11:41:49.692Z,594.00
2023-03-17T11:42:49.694Z,598.00
2023-03-17T11:43:49.731Z,599.00
2023-03-17T11:44:50.122Z,605.00
2023-03-17T11:45:49.762Z,611.00
2023-03-17T11:46:50.607Z,616.00
2023-03-17T11:47:49.789Z,618.00
2023-03-17T11:48:49.847Z,621.00
2023-03-17T11:49:49.844Z,622.00
2023-03-17T11:50:49.854Z,623.00
2023-03-17T11:51:49.865Z,624.00
2023-03-17T11:52:49.911Z,623.00
2023-03-17T11:53:49.964Z,622.00
2023-03-17T11:54:49.962Z,618.00
2023-03-17T11:55:50.019Z,615.00
2023-03-17T11:56:50.011Z,612.00
2023-03-17T11:57:50.113Z,609.00
2023-03-17T11:58:50.128Z,609.00
2023-03-17T12:00:50.188Z,610.00
2023-03-17T12:01:50.236Z,609.00
2023-03-17T12:02:50.266Z,609.00
2023-03-17T12:03:50.500Z,611.00
2023-03-17T12:04:50.384Z,611.00
2023-03-17T12:05:50.342Z,613.00
2023-03-17T12:06:50.352Z,614.00
2023-03-17T12:07:50.428Z,613.00
2023-03-17T12:08:50.439Z,612.00
2023-03-17T12:09:50.529Z,610.00
2023-03-17T12:10:50.541Z,608.00
2023-03-17T12:11:50.557Z,608.00
2023-03-17T12:12:50.603Z,609.00
2023-03-17T12:13:50.606Z,606.00
2023-03-17T12:14:50.716Z,605.00
2023-03-17T12:15:50.677Z,601.00
2023-03-17T12:16:50.729Z,599.00
2023-03-17T12:17:50.759Z,597.00
2023-03-17T12:18:50.759Z,596.00
2023-03-17T12:19:50.835Z,595.00
2023-03-17T12:20:51.121Z,595.00
2023-03-17T12:21:50.884Z,594.00
2023-03-17T12:22:50.912Z,592.00
2023-03-17T12:23:50.986Z,596.00
2023-03-17T12:24:50.978Z,594.00
2023-03-17T12:25:50.988Z,595.00
2023-03-17T12:26:51.053Z,595.00
2023-03-17T12:27:51.052Z,594.00
2023-03-17T12:28:51.090Z,594.00
2023-03-17T12:29:51.157Z,592.00
2023-03-17T12:30:51.654Z,592.00
2023-03-17T12:31:51.244Z,588.00
2023-03-17T12:32:51.301Z,587.00
2023-03-17T12:33:51.303Z,586.00
2023-03-17T12:34:51.332Z,586.00
2023-03-17T12:35:51.626Z,587.00
2023-03-17T12:36:51.449Z,589.00
2023-03-17T12:37:51.461Z,593.00
2023-03-17T12:38:51.472Z,593.00
2023-03-17T12:39:51.531Z,592.00
2023-03-17T12:40:51.642Z,588.00
2023-03-17T12:41:51.612Z,589.00
2023-03-17T12:42:51.587Z,589.00
2023-03-17T12:43:51.638Z,588.00
2023-03-17T12:44:51.711Z,590.00
2023-03-17T12:45:54.242Z,590.00
2023-03-17T12:46:51.902Z,588.00
2023-03-17T12:47:51.930Z,589.00
2023-03-17T12:48:51.947Z,591.00
2023-03-17T12:49:51.992Z,591.00
2023-03-17T12:50:52.031Z,590.00
2023-03-17T12:51:52.067Z,584.00
2023-03-17T12:52:52.067Z,581.00
2023-03-17T12:53:52.114Z,580.00
2023-03-17T12:54:52.123Z,577.00
2023-03-17T12:55:52.166Z,579.00
2023-03-17T12:56:52.206Z,579.00
2023-03-17T12:57:52.242Z,581.00
2023-03-17T12:58:52.262Z,586.00
2023-03-17T12:59:52.300Z,591.00
2023-03-17T13:00:52.326Z,594.00
2023-03-17T13:01:52.405Z,595.00
2023-03-17T13:02:52.418Z,593.00
2023-03-17T13:04:52.426Z,588.00
2023-03-17T13:05:52.642Z,585.00
2023-03-17T13:06:52.518Z,583.00
2023-03-17T13:07:52.534Z,586.00
2023-03-17T13:08:52.563Z,587.00
2023-03-17T13:09:52.657Z,586.00
2023-03-17T13:10:52.669Z,589.00
2023-03-17T13:11:52.707Z,590.00
2023-03-17T13:12:52.734Z,591.00
2023-03-17T13:13:52.756Z,590.00
2023-03-17T13:14:53.613Z,593.00
2023-03-17T13:15:52.843Z,591.00
2023-03-17T13:16:52.846Z,591.00
2023-03-17T13:17:52.895Z,590.00
2023-03-17T13:18:52.967Z,587.00
2023-03-17T13:19:52.978Z,584.00
2023-03-17T13:20:53.010Z,585.00
2023-03-17T13:21:53.045Z,587.00
2023-03-17T13:22:53.084Z,587.00
2023-03-17T13:23:53.116Z,585.00
2023-03-17T13:24:53.166Z,583.00
2023-03-17T13:25:53.195Z,578.00
2023-03-17T13:26:55.031Z,575.00
2023-03-17T13:27:53.250Z,573.00
2023-03-17T13:28:53.281Z,570.00
2023-03-17T13:30:53.353Z,568.00
2023-03-17T13:31:53.421Z,567.00
2023-03-17T13:32:53.437Z,566.00
2023-03-17T13:33:53.485Z,564.00
2023-03-17T13:34:53.473Z,563.00
2023-03-17T13:35:53.593Z,562.00
2023-03-17T13:36:53.596Z,561.00
2023-03-17T13:37:53.727Z,562.00
2023-03-17T13:39:15.090Z,560.00
2023-03-17T13:39:54.625Z,559.00
2023-03-17T13:40:53.602Z,559.00
2023-03-17T13:41:53.589Z,558.00
2023-03-17T13:45:53.551Z,559.00
2023-03-17T13:46:53.594Z,555.00
2023-03-17T13:47:53.529Z,552.00
2023-03-17T13:48:53.514Z,550.00
2023-03-17T13:49:53.495Z,549.00
2023-03-17T13:50:53.490Z,548.00
2023-03-17T13:51:59.906Z,547.00
2023-03-17T13:52:54.533Z,546.00
2023-03-17T13:53:53.511Z,546.00
2023-03-17T13:54:53.488Z,544.00
2023-03-17T13:55:53.546Z,543.00
2023-03-17T13:56:53.508Z,544.00
2023-03-17T17:43:59.257Z,452.00
2023-03-17T17:51:58.459Z,454.00
2023-03-17T17:52:58.476Z,453.00
2023-03-17T17:53:58.498Z,451.00
2023-03-17T17:54:58.503Z,451.00
2023-03-17T17:55:58.506Z,451.00
2023-03-17T17:56:58.542Z,454.00
2023-03-17T17:57:58.574Z,459.00
2023-03-17T17:58:58.603Z,461.00
2023-03-17T17:59:58.644Z,460.00
2023-03-17T18:00:58.710Z,458.00
2023-03-17T18:01:58.685Z,458.00
2023-03-17T18:02:58.685Z,458.00
2023-03-17T18:03:58.656Z,457.00
2023-03-17T18:04:58.702Z,456.00
2023-03-17T18:05:58.698Z,457.00
2023-03-17T18:06:58.758Z,457.00
2023-03-17T18:07:58.764Z,455.00
2023-03-17T18:08:58.765Z,456.00
2023-03-17T18:09:58.788Z,456.00
2023-03-17T18:10:58.839Z,457.00
2023-03-17T18:11:58.851Z,458.00
2023-03-17T18:12:58.822Z,456.00
2023-03-17T18:13:58.866Z,457.00
2023-03-17T18:14:58.892Z,455.00
2023-03-17T18:15:58.878Z,457.00
2023-03-17T18:16:58.896Z,455.00
2023-03-17T18:17:58.940Z,454.00
2023-03-17T18:18:58.929Z,452.00
2023-03-17T18:19:58.959Z,452.00
2023-03-17T18:20:58.992Z,451.00
2023-03-17T18:21:59.001Z,451.00
2023-03-17T18:22:59.000Z,450.00
2023-03-17T18:23:59.058Z,451.00
2023-03-17T18:24:59.048Z,448.00
2023-03-17T18:25:59.089Z,450.00
2023-03-17T18:26:59.132Z,454.00
2023-03-17T18:27:59.128Z,453.00
2023-03-17T18:28:59.140Z,453.00
2023-03-17T18:29:59.189Z,451.00
2023-03-17T18:30:59.214Z,449.00
2023-03-17T18:31:59.327Z,447.00
2023-03-17T18:40:59.414Z,453.00
2023-03-17T19:10:59.973Z,447.00
2023-03-17T19:12:00.014Z,446.00
2023-03-17T19:13:00.031Z,445.00
2023-03-17T19:14:00.061Z,447.00
2023-03-17T19:15:00.108Z,447.00
2023-03-17T19:16:00.103Z,445.00
2023-03-17T19:17:00.182Z,444.00
2023-03-17T19:18:00.135Z,443.00
2023-03-17T19:19:00.171Z,443.00
2023-03-17T19:20:00.194Z,445.00
2023-03-17T19:21:00.177Z,447.00
2023-03-17T19:22:00.226Z,450.00
2023-03-17T19:23:00.256Z,450.00
2023-03-17T19:24:00.257Z,448.00
2023-03-17T19:25:00.265Z,450.00
2023-03-17T19:26:00.306Z,448.00
2023-03-17T19:27:00.319Z,449.00
2023-03-17T19:28:00.311Z,449.00
2023-03-17T19:29:00.385Z,451.00
2023-03-17T19:30:00.354Z,451.00
2023-03-17T19:31:00.613Z,451.00
2023-03-17T19:32:00.414Z,448.00
2023-03-17T19:33:00.432Z,448.00
2023-03-17T19:34:00.463Z,447.00
2023-03-17T19:35:00.489Z,447.00
2023-03-17T19:36:00.525Z,448.00
2023-03-17T19:37:02.566Z,451.00
2023-03-17T19:38:00.522Z,451.00
2023-03-17T19:39:00.496Z,449.00
2023-03-17T19:40:00.514Z,447.00
2023-03-17T19:41:00.501Z,448.00
2023-03-17T19:42:00.465Z,448.00
2023-03-17T19:43:00.470Z,450.00
2023-03-17T19:44:00.450Z,449.00
2023-03-17T19:45:00.498Z,451.00
2023-03-17T19:46:00.517Z,453.00
2023-03-17T19:47:00.444Z,453.00
2023-03-17T19:48:00.454Z,450.00
2023-03-17T19:49:00.457Z,450.00
2023-03-17T19:50:00.428Z,450.00
2023-03-17T19:52:00.447Z,449.00
2023-03-17T19:53:00.424Z,451.00
2023-03-17T19:54:00.436Z,452.00
2023-03-17T19:55:00.435Z,448.00
2023-03-17T19:56:00.418Z,446.00
2023-03-17T19:57:00.386Z,446.00
2023-03-17T19:58:00.384Z,447.00
2023-03-17T19:59:00.386Z,450.00
2023-03-17T20:00:00.384Z,451.00
2023-03-17T20:01:00.366Z,454.00
2023-03-17T20:02:00.370Z,455.00
2023-03-17T20:03:00.371Z,456.00
2023-03-17T20:04:00.435Z,455.00
2023-03-17T20:05:00.353Z,453.00
2023-03-17T20:06:00.313Z,452.00
2023-03-17T20:07:00.341Z,452.00
2023-03-17T20:08:00.296Z,453.00
2023-03-17T20:09:00.300Z,453.00
2023-03-17T20:10:00.281Z,454.00
2023-03-17T20:11:00.263Z,454.00
2023-03-17T20:12:00.304Z,453.00
2023-03-17T20:13:00.260Z,456.00
2023-03-17T20:14:00.270Z,457.00
2023-03-17T20:15:00.236Z,458.00
2023-03-17T20:16:00.354Z,454.00
2023-03-17T20:17:00.223Z,453.00
2023-03-17T20:18:00.208Z,451.00
2023-03-17T20:19:00.227Z,450.00
2023-03-17T20:20:00.234Z,452.00
2023-03-17T20:21:00.228Z,453.00
2023-03-17T20:22:00.186Z,454.00
2023-03-17T20:23:00.199Z,453.00
2023-03-17T20:24:00.192Z,452.00
2023-03-17T20:25:00.192Z,452.00
2023-03-17T20:26:00.173Z,452.00
2023-03-17T20:27:00.152Z,453.00
2023-03-17T20:28:00.144Z,453.00
2023-03-17T20:29:00.124Z,452.00
2023-03-17T20:30:00.163Z,451.00
2023-03-17T20:31:00.233Z,451.00
2023-03-17T20:32:00.111Z,458.00
2023-03-17T20:33:00.194Z,461.00
2023-03-17T20:34:00.126Z,461.00
2023-03-17T20:35:00.229Z,459.00
2023-03-17T20:36:00.460Z,455.00
2023-03-17T20:37:00.288Z,455.00
2023-03-17T20:38:00.078Z,457.00
2023-03-17T20:39:00.050Z,456.00
2023-03-17T20:40:00.037Z,453.00
2023-03-17T20:41:00.014Z,455.00
2023-03-17T20:42:00.018Z,455.00
2023-03-17T20:43:00.000Z,457.00
2023-03-17T20:44:00.105Z,457.00
2023-03-17T20:45:00.087Z,455.00
2023-03-17T20:45:59.994Z,455.00
2023-03-17T20:46:59.999Z,457.00
2023-03-17T20:47:59.971Z,457.00
2023-03-17T20:48:59.961Z,458.00
2023-03-17T20:49:59.984Z,460.00
2023-03-17T20:50:59.963Z,460.00
2023-03-17T20:51:59.970Z,459.00
2023-03-17T20:52:59.987Z,457.00
2023-03-17T20:53:59.939Z,454.00
2023-03-17T20:54:59.969Z,453.00
2023-03-17T20:55:59.915Z,454.00
2023-03-17T20:56:59.939Z,454.00
2023-03-17T20:58:00.051Z,455.00
2023-03-17T20:59:00.016Z,457.00
2023-03-17T21:00:00.057Z,458.00
2023-03-17T21:01:00.111Z,461.00
2023-03-17T21:02:00.194Z,462.00
2023-03-17T21:03:00.183Z,462.00
2023-03-17T21:04:00.196Z,464.00
2023-03-17T21:05:00.222Z,468.00
2023-03-17T21:06:00.237Z,467.00
2023-03-17T21:07:00.263Z,468.00
2023-03-17T21:08:00.328Z,467.00
2023-03-17T21:09:00.329Z,469.00
2023-03-17T21:10:00.396Z,467.00
2023-03-17T21:11:00.423Z,466.00
2023-03-17T21:12:00.465Z,469.00
2023-03-17T21:13:00.463Z,470.00
2023-03-17T21:14:00.522Z,467.00
2023-03-17T21:15:00.540Z,467.00
2023-03-17T21:16:00.621Z,468.00
2023-03-17T21:17:00.635Z,467.00
2023-03-17T21:18:00.626Z,469.00
2023-03-17T21:19:00.678Z,470.00
2023-03-17T21:20:00.722Z,470.00
2023-03-17T21:21:00.747Z,468.00
2023-03-17T21:22:00.803Z,465.00
2023-03-17T21:23:00.814Z,462.00
2023-03-17T21:24:00.825Z,462.00
2023-03-17T21:25:00.875Z,461.00
2023-03-17T21:26:00.921Z,459.00
2023-03-17T21:27:00.959Z,460.00
2023-03-17T21:28:00.988Z,459.00
2023-03-17T21:29:01.033Z,459.00
2023-03-17T21:30:01.080Z,460.00
2023-03-17T21:31:01.168Z,460.00
2023-03-17T21:32:01.137Z,460.00
2023-03-17T21:33:01.313Z,463.00
2023-03-17T21:34:01.210Z,463.00
2023-03-17T21:35:01.218Z,461.00
2023-03-17T21:36:01.348Z,460.00
2023-03-17T21:37:01.339Z,460.00
2023-03-17T21:38:01.353Z,460.00
2023-03-17T21:39:01.378Z,460.00
2023-03-17T21:40:01.420Z,459.00
2023-03-17T21:41:01.464Z,456.00
2023-03-17T21:42:01.508Z,459.00
2023-03-17T21:43:01.513Z,463.00
2023-03-17T21:44:01.559Z,465.00
2023-03-17T21:45:01.594Z,465.00
2023-03-17T21:46:01.679Z,467.00
2023-03-17T21:47:01.648Z,468.00
2023-03-17T21:48:01.680Z,467.00
2023-03-17T21:49:01.686Z,467.00
2023-03-17T21:50:01.722Z,464.00
2023-03-17T21:51:01.743Z,464.00
2023-03-17T21:52:01.797Z,464.00
2023-03-17T21:53:01.833Z,466.00
2023-03-17T21:54:01.862Z,467.00
2023-03-17T21:55:02.837Z,466.00
2023-03-17T21:56:01.906Z,466.00
2023-03-17T21:57:01.974Z,465.00
2023-03-17T21:58:01.999Z,465.00
2023-03-17T21:59:02.033Z,467.00
2023-03-17T22:00:02.075Z,466.00
2023-03-17T22:01:02.108Z,465.00
2023-03-17T22:02:02.153Z,462.00
2023-03-17T22:03:02.231Z,463.00
2023-03-17T22:04:02.202Z,464.00
2023-03-17T22:05:02.277Z,464.00
2023-03-17T22:06:02.316Z,464.00
2023-03-17T22:07:02.318Z,464.00
2023-03-17T22:08:02.388Z,465.00
2023-03-17T22:09:02.430Z,466.00
2023-03-17T22:10:02.438Z,465.00
2023-03-17T22:11:02.480Z,467.00
2023-03-17T22:12:02.506Z,466.00
2023-03-17T22:13:02.570Z,467.00
2023-03-17T22:14:02.609Z,465.00
2023-03-17T22:15:02.621Z,466.00
2023-03-17T22:16:02.654Z,466.00
2023-03-17T22:17:02.724Z,467.00
2023-03-17T22:18:02.728Z,469.00
2023-03-17T22:19:02.800Z,467.00
2023-03-17T22:20:02.804Z,468.00
2023-03-17T22:21:02.858Z,469.00
2023-03-17T22:22:02.898Z,468.00
2023-03-17T22:23:02.945Z,470.00
2023-03-17T22:24:02.973Z,468.00
2023-03-17T22:25:03.052Z,470.00
2023-03-17T22:26:03.111Z,470.00
2023-03-17T22:27:03.136Z,469.00
2023-03-17T22:28:03.194Z,472.00
2023-03-17T22:29:03.210Z,473.00
2023-03-17T22:30:03.286Z,471.00
2023-03-17T22:31:03.297Z,470.00
2023-03-17T22:32:03.439Z,470.00
2023-03-17T22:33:03.484Z,467.00
2023-03-17T22:34:03.443Z,464.00
2023-03-17T22:35:03.476Z,464.00
2023-03-17T22:36:03.544Z,464.00
2023-03-17T22:37:03.562Z,469.00
2023-03-17T22:38:03.585Z,473.00
2023-03-17T22:39:03.632Z,472.00
2023-03-17T22:40:03.667Z,474.00
2023-03-17T22:41:03.734Z,473.00
2023-03-17T22:42:03.753Z,473.00
2023-03-17T22:43:03.809Z,472.00
2023-03-17T22:44:03.825Z,470.00
2023-03-17T22:45:03.879Z,470.00
2023-03-17T22:46:04.029Z,468.00
2023-03-17T22:47:03.985Z,468.00
2023-03-17T22:48:03.988Z,466.00
2023-03-17T22:49:04.042Z,466.00
2023-03-17T22:50:04.049Z,469.00
2023-03-17T22:51:04.144Z,469.00
2023-03-17T22:52:04.191Z,468.00
2023-03-17T22:53:04.188Z,468.00
2023-03-17T22:54:04.245Z,469.00
2023-03-17T22:55:04.303Z,471.00
2023-03-17T22:56:04.303Z,469.00
2023-03-17T22:57:05.640Z,470.00
2023-03-17T22:58:04.416Z,467.00
2023-03-17T22:59:04.432Z,468.00
2023-03-17T23:00:04.476Z,470.00
2023-03-17T23:01:04.564Z,471.00
2023-03-17T23:02:04.595Z,472.00
2023-03-17T23:03:04.620Z,472.00
2023-03-17T23:04:04.723Z,473.00
2023-03-17T23:05:04.742Z,472.00
2023-03-17T23:06:04.771Z,473.00
2023-03-17T23:07:04.793Z,469.00
2023-03-17T23:08:04.881Z,468.00
2023-03-17T23:09:04.940Z,466.00
2023-03-17T23:10:04.969Z,467.00
2023-03-17T23:11:05.024Z,469.00
2023-03-17T23:12:05.059Z,469.00
2023-03-17T23:13:05.113Z,469.00
2023-03-17T23:14:05.186Z,467.00
2023-03-17T23:15:05.246Z,467.00
2023-03-17T23:16:05.286Z,466.00
2023-03-17T23:17:05.367Z,464.00
2023-03-17T23:18:05.327Z,463.00
2023-03-17T23:19:05.386Z,463.00
2023-03-17T23:20:05.410Z,463.00
2023-03-17T23:21:05.473Z,464.00
2023-03-17T23:22:05.510Z,464.00
2023-03-17T23:23:05.573Z,466.00
2023-03-17T23:24:05.599Z,468.00
2023-03-17T23:25:05.644Z,467.00
2023-03-17T23:26:05.672Z,467.00
2023-03-17T23:27:05.735Z,466.00
2023-03-17T23:28:05.783Z,461.00
2023-03-17T23:29:05.850Z,461.00
2023-03-17T23:30:05.938Z,461.00
2023-03-17T23:31:05.954Z,459.00
2023-03-17T23:32:06.000Z,459.00
2023-03-17T23:33:06.069Z,461.00
2023-03-17T23:34:06.084Z,463.00
2023-03-17T23:35:06.110Z,461.00
2023-03-17T23:36:06.195Z,463.00
2023-03-17T23:37:06.257Z,462.00
2023-03-17T23:38:06.285Z,464.00
2023-03-17T23:39:06.308Z,465.00
2023-03-17T23:40:06.447Z,464.00
2023-03-17T23:41:06.404Z,467.00
2023-03-17T23:42:06.443Z,466.00
2023-03-17T23:43:06.498Z,468.00
2023-03-17T23:44:06.573Z,468.00
2023-03-17T23:45:06.617Z,467.00
2023-03-17T23:46:06.680Z,466.00
2023-03-17T23:47:06.678Z,464.00
2023-03-17T23:48:06.732Z,464.00
2023-03-17T23:49:06.770Z,466.00
2023-03-17T23:50:06.822Z,466.00
2023-03-17T23:51:06.896Z,467.00
2023-03-17T23:52:06.928Z,468.00
2023-03-17T23:53:06.972Z,468.00
